Time,TemperatureF,DewpointF,PressureIn,WindDirection,WindDirectionDegrees,WindSpeedMPH,WindSpeedGustMPH,Humidity,HourlyPrecipIn,Conditions,Clouds,dailyrainin,SoftwareType,DateUTC
2013-03-31 00:00:00,52.8,41.9,30.06,WSW,241,0.0,1.0,66,0.00,,,0.00,WUHU216DAVISVP2,2013-03-31 04:00:00,
2013-03-31 00:05:00,52.6,41.7,30.06,WSW,240,0.0,1.0,66,0.00,,,0.00,WUHU216DAVISVP2,2013-03-31 04:05:00,
2013-03-31 00:10:00,52.8,41.9,30.06,WSW,239,0.0,2.0,66,0.00,,,0.00,WUHU216DAVISVP2,2013-03-31 04:10:00,
2013-03-31 00:15:00,52.6,41.7,30.06,WSW,239,0.0,2.0,66,0.00,,,0.00,WUHU216DAVISVP2,2013-03-31 04:15:00,
2013-03-31 00:20:00,52.6,41.7,30.06,WSW,239,0.0,0.0,66,0.00,,,0.00,WUHU216DAVISVP2,2013-03-31 04:20:00,
2013-03-31 00:25:00,52.5,42.0,30.06,WSW,237,1.0,1.0,67,0.00,,,0.00,WUHU216DAVISVP2,2013-03-31 04:25:00,
2013-03-31 00:30:00,52.5,42.0,30.05,WSW,237,0.0,1.0,67,0.00,,,0.00,WUHU216DAVISVP2,2013-03-31 04:30:00,
2013-03-31 00:35:00,52.5,42.0,30.05,WSW,237,0.0,1.0,67,0.00,,,0.00,WUHU216DAVISVP2,2013-03-31 04:35:00,
2013-03-31 00:40:00,52.5,42.0,30.05,WSW,237,0.0,2.0,67,0.00,,,0.00,WUHU216DAVISVP2,2013-03-31 04:40:00,
2013-03-31 00:45:00,52.5,42.0,30.05,SW,236,0.0,2.0,67,0.00,,,0.00,WUHU216DAVISVP2,2013-03-31 04:45:00,
2013-03-31 00:50:00,52.5,42.0,30.05,SW,236,0.0,2.0,67,0.00,,,0.00,WUHU216DAVISVP2,2013-03-31 04:50:00,
2013-03-31 00:55:00,52.5,42.4,30.05,SW,233,0.0,2.0,68,0.00,,,0.00,WUHU216DAVISVP2,2013-03-31 04:55:00,
2013-03-31 01:00:00,52.3,42.2,30.05,SW,232,0.0,2.0,68,0.00,,,0.00,WUHU216DAVISVP2,2013-03-31 05:00:00,
2013-03-31 01:05:00,52.5,42.4,30.05,SW,232,0.0,2.0,68,0.00,,,0.00,WUHU216DAVISVP2,2013-03-31 05:05:00,
2013-03-31 01:10:00,52.3,42.2,30.05,SW,232,0.0,2.0,68,0.00,,,0.00,WUHU216DAVISVP2,2013-03-31 05:10:00,
2013-03-31 01:15:00,52.3,42.2,30.04,SSE,168,0.0,2.0,68,0.00,,,0.00,WUHU216DAVISVP2,2013-03-31 05:15:00,
2013-03-31 01:20:00,52.2,42.4,30.04,SSE,168,0.0,2.0,69,0.00,,,0.00,WUHU216DAVISVP2,2013-03-31 05:20:00,
2013-03-31 01:25:00,52.2,42.4,30.04,SSE,168,0.0,0.0,69,0.00,,,0.00,WUHU216DAVISVP2,2013-03-31 05:25:00,
2013-03-31 01:30:00,52.2,42.4,30.04,SSE,168,0.0,0.0,69,0.00,,,0.00,WUHU216DAVISVP2,2013-03-31 05:30:00,
2013-03-31 01:35:00,52.0,42.3,30.04,SSE,168,0.0,0.0,69,0.00,,,0.00,WUHU216DAVISVP2,2013-03-31 05:35:00,
2013-03-31 01:40:00,51.9,42.2,30.04,SSE,168,0.0,0.0,69,0.00,,,0.00,WUHU216DAVISVP2,2013-03-31 05:40:00,
2013-03-31 01:45:00,51.7,42.3,30.03,SSE,168,0.0,0.0,70,0.00,,,0.00,WUHU216DAVISVP2,2013-03-31 05:45:00,
2013-03-31 01:50:00,51.7,42.2,30.03,SSE,168,0.0,0.0,70,0.00,,,0.00,WUHU216DAVISVP2,2013-03-31 05:50:00,
2013-03-31 01:55:00,51.6,42.2,30.03,SSE,168,0.0,0.0,70,0.00,,,0.00,WUHU216DAVISVP2,2013-03-31 05:55:00,
2013-03-31 02:00:00,51.6,42.2,30.03,SSE,168,1.0,1.0,70,0.00,,,0.00,WUHU216DAVISVP2,2013-03-31 06:00:00,
2013-03-31 02:05:00,51.4,41.9,30.03,SSE,168,0.0,1.0,70,0.00,,,0.00,WUHU216DAVISVP2,2013-03-31 06:05:00,
2013-03-31 02:10:00,51.3,42.2,30.03,SSE,168,0.0,1.0,71,0.00,,,0.00,WUHU216DAVISVP2,2013-03-31 06:10:00,
2013-03-31 02:15:00,51.1,42.1,30.02,SSE,168,0.0,0.0,71,0.00,,,0.00,WUHU216DAVISVP2,2013-03-31 06:15:00,
2013-03-31 02:20:00,51.0,42.0,30.02,SSE,168,0.0,0.0,71,0.00,,,0.00,WUHU216DAVISVP2,2013-03-31 06:20:00,
2013-03-31 02:25:00,51.0,42.0,30.02,SSE,168,0.0,1.0,71,0.00,,,0.00,WUHU216DAVISVP2,2013-03-31 06:25:00,
2013-03-31 02:30:00,50.8,42.2,30.02,SSE,168,0.0,1.0,72,0.00,,,0.00,WUHU216DAVISVP2,2013-03-31 06:30:00,
2013-03-31 02:35:00,50.8,42.2,30.02,SSE,168,0.0,0.0,72,0.00,,,0.00,WUHU216DAVISVP2,2013-03-31 06:35:00,
2013-03-31 02:40:00,50.8,42.2,30.02,SSE,168,0.0,0.0,72,0.00,,,0.00,WUHU216DAVISVP2,2013-03-31 06:40:00,
2013-03-31 02:45:00,50.8,42.2,30.01,SSE,168,0.0,0.0,72,0.00,,,0.00,WUHU216DAVISVP2,2013-03-31 06:45:00,
2013-03-31 02:50:00,50.8,42.2,30.01,SSE,168,0.0,0.0,72,0.00,,,0.00,WUHU216DAVISVP2,2013-03-31 06:50:00,
2013-03-31 11:17:00,56.9,53.4,29.87,SSW,202,4.0,4.0,88,0.00,,,0.00,WUHU216DAVISVP2,2013-03-31 15:17:00,
2013-03-31 11:22:00,56.9,53.4,29.87,East,100,2.0,4.0,88,0.00,,,0.00,WUHU216DAVISVP2,2013-03-31 15:22:00,
2013-03-31 11:27:00,56.9,53.4,29.87,East,99,0.0,4.0,88,0.00,,,0.00,WUHU216DAVISVP2,2013-03-31 15:27:00,
2013-03-31 11:32:00,56.9,53.4,29.86,East,99,0.0,4.0,88,0.00,,,0.00,WUHU216DAVISVP2,2013-03-31 15:32:00,
2013-03-31 11:37:00,58.1,54.6,29.86,ESE,120,4.0,4.0,88,0.00,,,0.00,WUHU216DAVISVP2,2013-03-31 15:37:00,
2013-03-31 11:42:00,58.1,54.2,29.86,ENE,68,0.0,4.0,87,0.00,,,0.00,WUHU216DAVISVP2,2013-03-31 15:42:00,
2013-03-31 11:47:00,58.3,54.4,29.86,SSW,196,0.0,6.0,87,0.00,,,0.00,WUHU216DAVISVP2,2013-03-31 15:47:00,
2013-03-31 11:52:00,58.4,54.5,29.86,South,178,0.0,6.0,87,0.00,,,0.00,WUHU216DAVISVP2,2013-03-31 15:52:00,
2013-03-31 11:57:00,58.6,54.7,29.86,South,178,0.0,2.0,87,0.00,,,0.00,WUHU216DAVISVP2,2013-03-31 15:57:00,
2013-03-31 12:02:00,58.6,54.4,29.86,South,188,0.0,2.0,86,0.00,,,0.00,WUHU216DAVISVP2,2013-03-31 16:02:00,
2013-03-31 12:07:00,58.9,54.7,29.86,ESE,102,2.0,2.0,86,0.00,,,0.00,WUHU216DAVISVP2,2013-03-31 16:07:00,
2013-03-31 12:12:00,59.2,55.0,29.86,ESE,102,0.0,2.0,86,0.00,,,0.00,WUHU216DAVISVP2,2013-03-31 16:12:00,
2013-03-31 12:17:00,59.2,55.0,29.86,NNW,339,0.0,6.0,86,0.00,,,0.00,WUHU216DAVISVP2,2013-03-31 16:17:00,
2013-03-31 12:22:00,59.5,55.3,29.86,SE,136,0.0,6.0,86,0.00,,,0.00,WUHU216DAVISVP2,2013-03-31 16:22:00,
2013-03-31 12:27:00,59.6,55.1,29.86,North,359,1.0,7.0,85,0.00,,,0.00,WUHU216DAVISVP2,2013-03-31 16:27:00,
2013-03-31 12:32:00,60.2,55.7,29.85,NW,326,0.0,7.0,85,0.00,,,0.00,WUHU216DAVISVP2,2013-03-31 16:32:00,
2013-03-31 12:37:00,60.5,56.0,29.85,NW,326,0.0,4.0,85,0.00,,,0.00,WUHU216DAVISVP2,2013-03-31 16:37:00,
2013-03-31 12:42:00,61.0,56.1,29.85,ESE,117,1.0,6.0,84,0.00,,,0.00,WUHU216DAVISVP2,2013-03-31 16:42:00,
2013-03-31 12:47:00,61.2,56.0,29.84,NE,40,1.0,6.0,83,0.00,,,0.00,WUHU216DAVISVP2,2013-03-31 16:47:00,
2013-03-31 12:52:00,61.2,55.7,29.84,NW,311,7.0,7.0,82,0.00,,,0.00,WUHU216DAVISVP2,2013-03-31 16:52:00,
2013-03-31 12:57:00,61.0,55.5,29.84,NE,49,4.0,7.0,82,0.00,,,0.00,WUHU216DAVISVP2,2013-03-31 16:57:00,
2013-03-31 13:02:00,61.0,55.5,29.83,ESE,116,1.0,7.0,82,0.00,,,0.00,WUHU216DAVISVP2,2013-03-31 17:02:00,
2013-03-31 13:07:00,61.6,55.8,29.83,ESE,112,0.0,7.0,81,0.00,,,0.00,WUHU216DAVISVP2,2013-03-31 17:07:00,
2013-03-31 13:12:00,62.9,57.0,29.83,SSE,160,2.0,7.0,81,0.00,,,0.00,WUHU216DAVISVP2,2013-03-31 17:12:00,
2013-03-31 13:17:00,63.2,56.7,29.82,SSE,151,2.0,8.0,79,0.00,,,0.00,WUHU216DAVISVP2,2013-03-31 17:17:00,
2013-03-31 13:22:00,63.4,56.8,29.82,NNW,346,0.0,8.0,79,0.00,,,0.00,WUHU216DAVISVP2,2013-03-31 17:22:00,
2013-03-31 13:27:00,63.5,56.9,29.82,NNW,336,0.0,7.0,79,0.00,,,0.00,WUHU216DAVISVP2,2013-03-31 17:27:00,
2013-03-31 13:32:00,63.9,56.6,29.81,East,85,0.0,4.0,77,0.00,,,0.00,WUHU216DAVISVP2,2013-03-31 17:32:00,
2013-03-31 13:37:00,63.5,56.3,29.81,WSW,257,1.0,4.0,77,0.00,,,0.00,WUHU216DAVISVP2,2013-03-31 17:37:00,
2013-03-31 13:42:00,63.4,56.2,29.81,ESE,113,0.0,4.0,77,0.00,,,0.00,WUHU216DAVISVP2,2013-03-31 17:42:00,
2013-03-31 13:48:00,63.2,56.0,29.81,North,354,0.0,1.0,77,0.00,,,0.00,WUHU216DAVISVP2,2013-03-31 17:48:00,
2013-03-31 13:53:00,63.2,56.0,29.81,NW,322,1.0,8.0,77,0.00,,,0.00,WUHU216DAVISVP2,2013-03-31 17:53:00,
2013-03-31 13:58:00,63.2,56.0,29.81,NW,325,4.0,8.0,77,0.00,,,0.00,WUHU216DAVISVP2,2013-03-31 17:58:00,
2013-03-31 14:03:00,63.2,56.0,29.81,West,261,0.0,11.0,77,0.00,,,0.00,WUHU216DAVISVP2,2013-03-31 18:03:00,
2013-03-31 14:08:00,63.2,55.6,29.81,WNW,282,10.0,16.0,76,0.00,,,0.00,WUHU216DAVISVP2,2013-03-31 18:08:00,
2013-03-31 14:13:00,63.2,55.6,29.81,NNW,342,0.0,16.0,76,0.00,,,0.00,WUHU216DAVISVP2,2013-03-31 18:13:00,
2013-03-31 14:18:00,63.4,55.8,29.80,SSW,192,0.0,7.0,76,0.00,,,0.00,WUHU216DAVISVP2,2013-03-31 18:18:00,
2013-03-31 14:23:00,63.5,55.5,29.80,ESE,106,1.0,2.0,75,0.00,,,0.00,WUHU216DAVISVP2,2013-03-31 18:23:00,
2013-03-31 14:28:00,64.3,56.3,29.80,SE,134,2.0,6.0,75,0.00,,,0.00,WUHU216DAVISVP2,2013-03-31 18:28:00,
2013-03-31 14:33:00,65.3,57.3,29.78,NW,325,7.0,7.0,75,0.00,,,0.00,WUHU216DAVISVP2,2013-03-31 18:33:00,
2013-03-31 14:38:00,66.0,57.2,29.78,SSW,205,1.0,7.0,73,0.00,,,0.00,WUHU216DAVISVP2,2013-03-31 18:38:00,
2013-03-31 14:43:00,66.6,57.1,29.78,WSW,254,4.0,7.0,71,0.00,,,0.00,WUHU216DAVISVP2,2013-03-31 18:43:00,
2013-03-31 14:48:00,66.4,56.9,29.77,NNW,340,2.0,7.0,71,0.00,,,0.00,WUHU216DAVISVP2,2013-03-31 18:48:00,
2013-03-31 14:53:00,66.3,56.8,29.77,South,169,0.0,7.0,71,0.00,,,0.00,WUHU216DAVISVP2,2013-03-31 18:53:00,
2013-03-31 14:58:00,66.3,56.8,29.77,East,80,0.0,7.0,71,0.00,,,0.00,WUHU216DAVISVP2,2013-03-31 18:58:00,
2013-03-31 15:03:00,66.3,56.4,29.77,ESE,120,0.0,6.0,70,0.00,,,0.00,WUHU216DAVISVP2,2013-03-31 19:03:00,
2013-03-31 15:08:00,66.3,56.4,29.77,ESE,110,2.0,7.0,70,0.00,,,0.00,WUHU216DAVISVP2,2013-03-31 19:08:00,
2013-03-31 15:13:00,66.1,56.2,29.77,SSE,148,0.0,7.0,70,0.00,,,0.00,WUHU216DAVISVP2,2013-03-31 19:13:00,
2013-03-31 15:18:00,66.1,56.2,29.77,NW,315,1.0,7.0,70,0.00,,,0.00,WUHU216DAVISVP2,2013-03-31 19:18:00,
2013-03-31 15:23:00,66.3,56.4,29.77,SE,144,0.0,6.0,70,0.00,,,0.00,WUHU216DAVISVP2,2013-03-31 19:23:00,
2013-03-31 15:28:00,66.1,56.2,29.77,NW,320,0.0,6.0,70,0.00,,,0.00,WUHU216DAVISVP2,2013-03-31 19:28:00,
2013-03-31 15:33:00,66.1,56.2,29.76,NE,49,1.0,6.0,70,0.00,,,0.00,WUHU216DAVISVP2,2013-03-31 19:33:00,
2013-03-31 15:38:00,66.3,56.4,29.76,East,99,4.0,6.0,70,0.00,,,0.00,WUHU216DAVISVP2,2013-03-31 19:38:00,
2013-03-31 15:43:00,66.6,55.9,29.76,East,100,0.0,7.0,68,0.00,,,0.00,WUHU216DAVISVP2,2013-03-31 19:43:00,
2013-03-31 15:48:00,67.4,56.6,29.77,SE,130,4.0,7.0,68,0.00,,,0.00,WUHU216DAVISVP2,2013-03-31 19:48:00,
2013-03-31 15:53:00,67.6,56.8,29.77,South,182,2.0,4.0,68,0.00,,,0.00,WUHU216DAVISVP2,2013-03-31 19:53:00,
2013-03-31 15:58:00,67.6,56.8,29.77,NE,45,1.0,6.0,68,0.00,,,0.00,WUHU216DAVISVP2,2013-03-31 19:58:00,
2013-03-31 16:03:00,67.6,56.8,29.76,North,8,4.0,6.0,68,0.00,,,0.00,WUHU216DAVISVP2,2013-03-31 20:03:00,
2013-03-31 16:08:00,67.9,57.1,29.76,East,95,1.0,4.0,68,0.00,,,0.00,WUHU216DAVISVP2,2013-03-31 20:08:00,
2013-03-31 16:13:00,67.9,56.9,29.76,East,83,1.0,8.0,68,0.00,,,0.00,WUHU216DAVISVP2,2013-03-31 20:13:00,
2013-03-31 16:18:00,67.9,57.1,29.76,SW,215,2.0,8.0,68,0.00,,,0.00,WUHU216DAVISVP2,2013-03-31 20:18:00,
2013-03-31 16:23:00,67.9,57.1,29.76,NNW,328,4.0,4.0,68,0.00,,,0.00,WUHU216DAVISVP2,2013-03-31 20:23:00,
2013-03-31 16:28:00,67.9,56.9,29.76,East,99,1.0,4.0,68,0.00,,,0.00,WUHU216DAVISVP2,2013-03-31 20:28:00,
2013-03-31 16:33:00,67.9,56.9,29.76,East,99,1.0,4.0,68,0.00,,,0.00,WUHU216DAVISVP2,2013-03-31 20:33:00,
2013-03-31 21:09:00,60.2,55.0,29.80,North,356,0.0,0.0,83,0.00,,,0.00,WUHU216DAVISVP2,2013-04-01 01:09:00,
2013-03-31 21:14:00,60.2,55.0,29.80,North,356,0.0,0.0,83,0.00,,,0.00,WUHU216DAVISVP2,2013-04-01 01:14:00,
2013-03-31 21:19:00,60.1,54.9,29.81,North,356,0.0,0.0,83,0.23,,,0.23,WUHU216DAVISVP2,2013-04-01 01:19:00,
2013-03-31 21:24:00,60.1,55.3,29.81,WSW,241,1.0,4.0,84,0.24,,,0.24,WUHU216DAVISVP2,2013-04-01 01:24:00,
2013-03-31 21:29:00,59.9,55.1,29.81,WSW,241,0.0,4.0,84,0.24,,,0.24,WUHU216DAVISVP2,2013-04-01 01:29:00,
2013-03-31 21:34:00,59.6,54.8,29.80,WSW,241,0.0,1.0,84,0.25,,,0.25,WUHU216DAVISVP2,2013-04-01 01:34:00,
2013-03-31 21:39:00,59.5,54.7,29.80,WSW,241,0.0,0.0,84,0.25,,,0.25,WUHU216DAVISVP2,2013-04-01 01:39:00,
2013-03-31 21:44:00,59.5,55.0,29.80,WSW,241,0.0,0.0,85,0.25,,,0.25,WUHU216DAVISVP2,2013-04-01 01:44:00,
2013-03-31 21:49:00,59.2,54.7,29.79,WSW,241,0.0,0.0,85,0.25,,,0.25,WUHU216DAVISVP2,2013-04-01 01:49:00,
2013-03-31 21:54:00,59.0,54.5,29.79,WSW,241,0.0,0.0,85,0.25,,,0.25,WUHU216DAVISVP2,2013-04-01 01:54:00,
2013-03-31 21:59:00,58.9,54.4,29.79,WSW,241,0.0,0.0,85,0.25,,,0.25,WUHU216DAVISVP2,2013-04-01 01:59:00,
2013-03-31 22:04:00,58.7,54.2,29.79,WSW,241,0.0,0.0,85,0.25,,,0.25,WUHU216DAVISVP2,2013-04-01 02:04:00,
2013-03-31 22:09:00,58.7,54.2,29.79,WSW,241,0.0,0.0,85,0.25,,,0.25,WUHU216DAVISVP2,2013-04-01 02:09:00,
2013-03-31 22:14:00,58.6,54.4,29.79,WSW,241,0.0,0.0,86,0.25,,,0.25,WUHU216DAVISVP2,2013-04-01 02:14:00,
2013-03-31 22:19:00,58.6,54.4,29.80,WSW,241,0.0,0.0,86,0.02,,,0.25,WUHU216DAVISVP2,2013-04-01 02:19:00,
2013-03-31 22:24:00,58.4,54.2,29.80,WSW,241,0.0,0.0,86,0.01,,,0.25,WUHU216DAVISVP2,2013-04-01 02:24:00,
2013-03-31 22:29:00,58.4,54.2,29.80,WSW,241,0.0,0.0,86,0.01,,,0.25,WUHU216DAVISVP2,2013-04-01 02:29:00,